Hub


Voltar

 INFORMAÇÕES METEOROLÓGICAS

METAR FOR KBCE


ADDS - METARS form results

(2022 UTC 17 January 2019)
Data provider http://aviationweather.gov/metar/data/
 
METAR text: KBCE 172014Z AUTO 14012KT 1 1/2SM -SN BR FEW003 BKN015 OVC041 M01/M02 A3010 RMK AO2 P0000 T10061017
Conditions at: KBCE (BRYCE CANYON , UT, US) observed 2014 UTC 17 January 2019
Temperature: -0.6°C (31°F)
Dewpoint: -1.7°C (29°F) [RH = 92%]
Pressure (altimeter): 30.10 inches Hg (1019.4 mb)
Winds: from the SE (140 degrees) at 14 MPH (12 knots; 6.2 m/s)
Visibility: 1.50 miles (2.41 km)
Ceiling: 1500 feet AGL
Clouds: few clouds at 300 feet AGL
broken clouds at 1500 feet AGL
overcast cloud deck at 4100 feet AGL
Weather: -SN BR  (light snow, mist)

METAR text: KBCE 172007Z AUTO 14012KT 1SM -SN BR FEW003 BKN013 OVC030 M01/M02 A3010 RMK AO2 P0000 T10061017
Conditions at: KBCE (BRYCE CANYON , UT, US) observed 2007 UTC 17 January 2019
Temperature: -0.6°C (31°F)
Dewpoint: -1.7°C (29°F) [RH = 92%]
Pressure (altimeter): 30.10 inches Hg (1019.4 mb)
Winds: from the SE (140 degrees) at 14 MPH (12 knots; 6.2 m/s)
Visibility: 1.00 miles (1.61 km)
Ceiling: 1300 feet AGL
Clouds: few clouds at 300 feet AGL
broken clouds at 1300 feet AGL
overcast cloud deck at 3000 feet AGL
Weather: -SN BR  (light snow, mist)

METAR text: KBCE 172001Z AUTO 14011KT 1/2SM SN FZFG FEW004 BKN009 OVC015 M01/M02 A3011 RMK AO2 P0000 T10061017
Conditions at: KBCE (BRYCE CANYON , UT, US) observed 2001 UTC 17 January 2019
Temperature: -0.6°C (31°F)
Dewpoint: -1.7°C (29°F) [RH = 92%]
Pressure (altimeter): 30.11 inches Hg (1019.7 mb)
Winds: from the SE (140 degrees) at 13 MPH (11 knots; 5.7 m/s)
Visibility: 0.50 miles (0.80 km)
Ceiling: 900 feet AGL
Clouds: few clouds at 400 feet AGL
broken clouds at 900 feet AGL
overcast cloud deck at 1500 feet AGL
Weather: SN FZFG  (moderate snow, freezing fog)

METAR text: KBCE 171953Z AUTO 15010KT 1/2SM SN FZFG BKN004 OVC015 M01/M02 A3011 RMK AO2 SLP186 P0001 T10061017
Conditions at: KBCE (BRYCE CANYON , UT, US) observed 1953 UTC 17 January 2019
Temperature: -0.6°C (31°F)
Dewpoint: -1.7°C (29°F) [RH = 92%]
Pressure (altimeter): 30.11 inches Hg (1019.7 mb)
[Sea-level pressure: 1018.6 mb]
Winds: from the SSE (150 degrees) at 12 MPH (10 knots; 5.1 m/s)
Visibility: 0.50 miles (0.80 km)
Ceiling: 400 feet AGL
Clouds: broken clouds at 400 feet AGL
overcast cloud deck at 1500 feet AGL
Weather: SN FZFG  (moderate snow, freezing fog)

METAR text: KBCE 171945Z AUTO 15012KT 3/4SM -SN BR VV004 M01/M02 A3012 RMK AO2 P0000 T10061017
Conditions at: KBCE (BRYCE CANYON , UT, US) observed 1945 UTC 17 January 2019
Temperature: -0.6°C (31°F)
Dewpoint: -1.7°C (29°F) [RH = 92%]
Pressure (altimeter): 30.12 inches Hg (1020.1 mb)
Winds: from the SSE (150 degrees) at 14 MPH (12 knots; 6.2 m/s)
Visibility: 0.75 miles (1.21 km)
Ceiling: indefinite ceiling with vertical visibility of 400 feet AGL
Clouds: obscured sky
Weather: -SN BR  (light snow, mist)

METAR text: KBCE 171926Z AUTO 14014KT 1/4SM -SN FG VV003 00/M02 A3011 RMK AO2 P0000 T00001017
Conditions at: KBCE (BRYCE CANYON , UT, US) observed 1926 UTC 17 January 2019
Temperature: 0.0°C (32°F)
Dewpoint: -1.7°C (29°F) [RH = 88%]
Pressure (altimeter): 30.11 inches Hg (1019.7 mb)
Winds: from the SE (140 degrees) at 16 MPH (14 knots; 7.2 m/s)
Visibility: 0.25 miles (0.40 km)
Ceiling: indefinite ceiling with vertical visibility of 300 feet AGL
Clouds: obscured sky
Weather: -SN FG  (light snow, fog)

Forecast for: KBCE (BRYCE CANYON , UT, US)
Text: KBCE 171752Z 1718/1818 14016KT 1SM -SN BR OVC010
Forecast period: 1800 UTC 17 January 2019 to 0400 UTC 18 January 2019
Forecast type: FROM: standard forecast or significant change
Winds: from the SE (140 degrees) at 18 MPH (16 knots; 8.2 m/s)
Visibility: 1.00 miles (1.61 km)
Ceiling: 1000 feet AGL
Clouds: overcast cloud deck at 1000 feet AGL
Weather: -SN BR  (light snow, mist)
Text: TEMPO 1718/1722 1/2SM -SN FZFG OVC003
Forecast period: 1800 to 2200 UTC 17 January 2019
Forecast type: TEMPORARY: The following changes expected for less than half the time period
Visibility: 0.50 miles (0.80 km)
Ceiling: 300 feet AGL
Clouds: overcast cloud deck at 300 feet AGL
Weather: -SN FZFG  (light snow, freezing fog)
Text: FM180400 22022G30KT 5SM -SN SCT010 BKN020
Forecast period: 0400 to 1300 UTC 18 January 2019
Forecast type: FROM: standard forecast or significant change
Winds: from the SW (220 degrees) at 25 MPH (22 knots; 11.3 m/s)
gusting to 34 MPH (30 knots; 15.4 m/s)
Visibility: 5 miles (8 km)
Ceiling: 2000 feet AGL
Clouds: scattered clouds at 1000 feet AGL
broken clouds at 2000 feet AGL
Weather: -SN  (light snow)
Text: FM181300 28012KT P6SM VCSH SCT020 BKN040
Forecast period: 1300 to 1800 UTC 18 January 2019
Forecast type: FROM: standard forecast or significant change
Winds: from the W (280 degrees) at 14 MPH (12 knots; 6.2 m/s)
Visibility: 6 or more miles 10+ km)
Ceiling: 4000 feet AGL
Clouds: scattered clouds at 2000 feet AGL
broken clouds at 4000 feet AGL
Weather: VCSH  (showers in vicinity)


 MAPA DO AEROPORTO


 INFORMAÇÕES DA PISTA

Pista 03 Tamanho da pista 7395 ft Largura da pista 75 ft
Elevação da pista 7586 ft Ranhura da pista 0 ft Proa da pista 47
Pista 21 Tamanho da pista 7395 ft Largura da pista 75 ft
Elevação da pista 7586 ft Ranhura da pista 0 ft Proa da pista 227

 FREQUÊNCIAS DO AEROPORTO

Tipo ASOS Nome ASOS Frequência 135.475 MHZ
Tipo FSS Nome CEDAR CITY Frequência 122.2 MHZ
Tipo UNIC Nome CTAF/UNICO Frequência 122.8 MHZ

 AUXÍLIOS DE NAVEGAÇÃO PRÓXIMOS AO AEROPORTO